createdAt,value
2018-03-29T00:01:11.089Z,82.10
2018-03-29T00:03:38.970Z,81.90
2018-03-29T00:06:07.595Z,81.10
2018-03-29T00:08:35.093Z,81.10
2018-03-29T00:11:03.097Z,81.40
2018-03-29T00:13:30.621Z,81.30
2018-03-29T00:15:58.310Z,81.10
2018-03-29T00:18:25.784Z,80.10
2018-03-29T00:20:53.352Z,79.80
2018-03-29T00:23:21.174Z,80.30
2018-03-29T00:25:48.725Z,79.10
2018-03-29T00:28:16.496Z,79.60
2018-03-29T00:30:43.977Z,79.00
2018-03-29T00:33:13.018Z,78.60
2018-03-29T00:35:40.937Z,78.50
2018-03-29T00:38:08.463Z,78.90
2018-03-29T00:40:36.783Z,79.20
2018-03-29T00:43:05.166Z,79.00
2018-03-29T00:45:32.923Z,79.00
2018-03-29T00:48:00.492Z,79.60
2018-03-29T00:50:28.061Z,79.50
2018-03-29T00:52:55.528Z,79.70
2018-03-29T00:55:23.125Z,79.10
2018-03-29T00:57:51.156Z,79.30
2018-03-29T01:00:19.218Z,79.70
2018-03-29T01:02:47.466Z,79.10
2018-03-29T01:05:16.050Z,79.50
2018-03-29T01:07:44.404Z,79.80
2018-03-29T01:10:11.866Z,79.70
2018-03-29T01:12:39.697Z,79.80
2018-03-29T01:15:07.266Z,80.00
2018-03-29T01:17:35.501Z,79.70
2018-03-29T01:20:02.996Z,79.70
2018-03-29T01:22:31.888Z,79.40
2018-03-29T01:25:01.325Z,78.70
2018-03-29T01:27:28.925Z,78.60
2018-03-29T01:29:56.609Z,78.90
2018-03-29T01:32:36.933Z,78.90
2018-03-29T01:35:05.228Z,78.40
2018-03-29T01:37:32.833Z,78.90
2018-03-29T01:40:00.783Z,78.80
2018-03-29T01:42:29.092Z,78.50
2018-03-29T01:44:58.030Z,78.50
2018-03-29T01:47:27.081Z,78.40
2018-03-29T01:49:55.749Z,78.70
2018-03-29T01:52:23.992Z,78.50
2018-03-29T01:54:51.537Z,78.50
2018-03-29T01:57:21.023Z,78.90
2018-03-29T01:59:48.509Z,78.80
2018-03-29T02:02:16.270Z,78.60
2018-03-29T02:04:44.191Z,78.80
2018-03-29T02:07:12.701Z,78.50
2018-03-29T02:09:40.545Z,78.40
2018-03-29T02:12:09.099Z,78.20
2018-03-29T02:14:36.614Z,78.20
2018-03-29T02:17:04.078Z,78.20
2018-03-29T02:19:31.549Z,78.70
2018-03-29T02:21:59.901Z,78.30
2018-03-29T02:24:27.576Z,78.30
2018-03-29T02:26:55.871Z,78.20
2018-03-29T02:29:23.345Z,78.10
2018-03-29T02:31:51.622Z,78.00
2018-03-29T02:34:19.111Z,78.00
2018-03-29T02:36:47.035Z,78.70
2018-03-29T02:39:15.092Z,78.40
2018-03-29T02:41:42.557Z,78.20
2018-03-29T02:44:10.303Z,78.30
2018-03-29T02:46:37.775Z,78.20
2018-03-29T02:49:05.269Z,78.80
2018-03-29T02:51:33.881Z,79.00
2018-03-29T02:54:02.097Z,79.00
2018-03-29T02:56:29.613Z,79.00
2018-03-29T02:58:57.647Z,79.00
2018-03-29T03:01:26.305Z,79.40
2018-03-29T03:03:53.779Z,79.40
2018-03-29T03:06:21.752Z,79.70
2018-03-29T03:08:49.218Z,79.70
2018-03-29T03:11:17.947Z,79.40
2018-03-29T03:13:45.403Z,79.30
2018-03-29T03:16:12.896Z,79.60
2018-03-29T03:18:40.373Z,79.30
2018-03-29T03:21:08.604Z,79.70
2018-03-29T03:23:36.069Z,79.80
2018-03-29T03:26:03.605Z,79.20
2018-03-29T03:28:31.072Z,79.30
2018-03-29T03:30:58.592Z,79.40
2018-03-29T03:33:26.733Z,79.60
2018-03-29T03:35:54.658Z,79.60
2018-03-29T03:38:22.113Z,79.30
2018-03-29T03:40:50.101Z,79.10
2018-03-29T03:43:18.044Z,79.20
2018-03-29T03:45:45.529Z,79.50
2018-03-29T03:48:12.965Z,79.80
2018-03-29T03:50:40.450Z,79.70
2018-03-29T03:53:07.913Z,79.50
2018-03-29T03:55:35.385Z,79.20
2018-03-29T03:58:04.222Z,79.40
2018-03-29T04:00:32.229Z,79.40
2018-03-29T04:02:59.702Z,79.40
2018-03-29T04:05:27.461Z,79.40
2018-03-29T04:07:55.711Z,79.40
2018-03-29T04:10:23.880Z,79.30
2018-03-29T04:12:51.371Z,79.30
2018-03-29T04:15:19.221Z,79.20
2018-03-29T04:17:46.677Z,79.20
2018-03-29T04:20:14.125Z,79.00
2018-03-29T04:22:41.601Z,79.00
2018-03-29T04:25:09.042Z,78.70
2018-03-29T04:27:36.509Z,79.20
2018-03-29T04:30:03.948Z,78.70
2018-03-29T04:32:31.608Z,78.10
2018-03-29T04:34:59.811Z,78.40
2018-03-29T04:37:28.461Z,78.80
2018-03-29T04:39:55.993Z,78.80
2018-03-29T04:42:23.449Z,79.00
2018-03-29T04:44:51.410Z,79.00
2018-03-29T04:47:18.841Z,79.20
2018-03-29T04:49:47.098Z,79.10
2018-03-29T04:52:14.538Z,79.00
2018-03-29T04:54:42.316Z,79.30
2018-03-29T04:57:09.763Z,78.70
2018-03-29T04:59:37.420Z,79.60
2018-03-29T05:02:04.846Z,79.10
2018-03-29T05:04:33.069Z,78.90
2018-03-29T05:07:01.844Z,79.00
2018-03-29T05:09:29.929Z,79.00
2018-03-29T05:11:57.257Z,79.00
2018-03-29T05:14:24.732Z,79.30
2018-03-29T05:16:52.179Z,79.00
2018-03-29T05:19:19.633Z,79.20
2018-03-29T05:21:47.077Z,79.30
2018-03-29T05:24:14.956Z,79.80
2018-03-29T05:26:42.426Z,79.40
2018-03-29T05:29:10.156Z,79.40
2018-03-29T05:31:37.600Z,79.60
2018-03-29T05:34:05.054Z,79.50
2018-03-29T05:36:32.972Z,79.60
2018-03-29T05:39:00.860Z,79.40
2018-03-29T05:41:28.301Z,79.20
2018-03-29T05:43:56.888Z,78.80
2018-03-29T05:46:25.126Z,78.90
2018-03-29T05:48:53.063Z,78.70
2018-03-29T05:51:20.504Z,78.90
2018-03-29T05:53:47.976Z,78.80
2018-03-29T05:56:15.420Z,78.70
2018-03-29T05:58:43.427Z,79.00
2018-03-29T06:01:11.093Z,79.00
2018-03-29T06:03:38.541Z,78.70
2018-03-29T06:06:06.373Z,79.00
2018-03-29T06:08:34.918Z,79.10
2018-03-29T06:11:02.713Z,79.20
2018-03-29T06:13:30.084Z,79.30
2018-03-29T06:16:03.904Z,79.40
2018-03-29T06:18:32.302Z,79.10
2018-03-29T06:20:59.768Z,79.00
2018-03-29T06:23:27.225Z,79.40
2018-03-29T06:25:54.712Z,79.40
2018-03-29T06:28:22.940Z,79.50
2018-03-29T06:30:50.441Z,79.40
2018-03-29T06:33:18.655Z,79.30
2018-03-29T06:35:46.452Z,79.40
2018-03-29T06:38:13.919Z,79.40
2018-03-29T06:40:41.341Z,78.80
2018-03-29T06:43:09.152Z,79.00
2018-03-29T06:45:37.697Z,79.10
2018-03-29T06:48:05.181Z,79.10
2018-03-29T06:50:32.645Z,78.90
2018-03-29T06:53:01.831Z,79.20
2018-03-29T06:55:29.279Z,79.10
2018-03-29T06:57:56.796Z,79.00
2018-03-29T07:00:24.242Z,78.60
2018-03-29T07:02:51.750Z,78.20
2018-03-29T07:05:19.618Z,78.50
2018-03-29T07:07:47.417Z,78.60
2018-03-29T07:10:15.630Z,78.80
2018-03-29T07:12:43.424Z,78.70
2018-03-29T07:15:11.172Z,78.70
2018-03-29T07:17:39.317Z,78.40
2018-03-29T07:20:06.951Z,77.80
2018-03-29T07:22:35.194Z,78.40
2018-03-29T07:25:02.669Z,78.20
2018-03-29T07:27:30.904Z,79.00
2018-03-29T07:29:58.370Z,78.90
2018-03-29T07:32:26.372Z,78.50
2018-03-29T07:34:55.048Z,78.80
2018-03-29T07:37:24.735Z,78.90
2018-03-29T07:39:52.230Z,78.90
2018-03-29T07:42:20.430Z,78.70
2018-03-29T07:44:48.402Z,78.70
2018-03-29T07:47:15.845Z,78.50
2018-03-29T07:49:43.369Z,78.60
2018-03-29T07:52:11.615Z,78.50
2018-03-29T07:54:39.050Z,78.40
2018-03-29T07:57:06.534Z,78.60
2018-03-29T07:59:34.948Z,78.50
2018-03-29T08:02:03.295Z,78.00
2018-03-29T08:04:30.761Z,78.00
2018-03-29T08:06:58.606Z,77.90
2018-03-29T08:09:26.584Z,77.80
2018-03-29T08:11:54.604Z,77.10
2018-03-29T08:14:22.081Z,77.80
2018-03-29T08:16:49.544Z,77.20
2018-03-29T08:19:17.010Z,76.80
2018-03-29T08:21:44.466Z,76.00
2018-03-29T08:24:12.549Z,76.20
2018-03-29T08:26:40.076Z,76.40
2018-03-29T08:29:07.548Z,75.90
2018-03-29T08:31:34.992Z,76.20
2018-03-29T08:34:02.444Z,75.70
2018-03-29T08:36:30.349Z,74.90
2018-03-29T08:38:58.556Z,75.00
2018-03-29T08:41:26.050Z,74.40
2018-03-29T08:43:54.657Z,74.00
2018-03-29T08:46:22.098Z,74.70
2018-03-29T08:48:49.643Z,75.30
2018-03-29T08:51:17.095Z,74.90
2018-03-29T08:53:44.596Z,74.90
2018-03-29T08:56:12.110Z,75.90
2018-03-29T08:58:39.590Z,75.30
2018-03-29T09:01:07.028Z,75.00
2018-03-29T09:03:35.033Z,74.70
2018-03-29T09:06:03.710Z,75.20
2018-03-29T09:08:31.791Z,74.30
2018-03-29T09:10:59.652Z,74.80
2018-03-29T09:13:27.729Z,74.90
2018-03-29T09:15:55.242Z,73.90
2018-03-29T09:18:22.803Z,74.00
2018-03-29T09:20:50.267Z,73.50
2018-03-29T09:23:17.719Z,73.10
2018-03-29T09:25:45.187Z,73.10
2018-03-29T09:35:00.136Z,73.30
2018-03-29T09:37:27.928Z,73.20
2018-03-29T09:39:56.357Z,72.60
2018-03-29T09:42:23.804Z,72.60
2018-03-29T09:44:51.894Z,73.40
2018-03-29T09:47:19.338Z,72.90
2018-03-29T09:49:46.816Z,73.40
2018-03-29T09:52:14.321Z,72.70
2018-03-29T09:54:41.797Z,72.60
2018-03-29T09:57:09.277Z,72.30
2018-03-29T09:59:36.794Z,71.60
2018-03-29T10:02:10.017Z,72.90
2018-03-29T10:04:37.880Z,72.30
2018-03-29T10:07:11.307Z,72.10
2018-03-29T10:09:39.973Z,72.20
2018-03-29T10:12:07.840Z,72.20
2018-03-29T10:14:35.388Z,71.60
2018-03-29T10:17:02.954Z,71.10
2018-03-29T10:19:30.423Z,70.80
2018-03-29T10:22:00.356Z,70.40
2018-03-29T10:24:28.617Z,70.00
2018-03-29T10:26:57.278Z,68.90
2018-03-29T10:29:24.729Z,69.40
2018-03-29T10:31:53.662Z,70.10
2018-03-29T10:34:21.868Z,69.80
2018-03-29T10:36:49.886Z,69.80
2018-03-29T10:39:18.101Z,68.80
2018-03-29T10:41:45.605Z,68.80
2018-03-29T10:44:13.472Z,69.20
2018-03-29T10:46:41.392Z,67.90
2018-03-29T10:49:08.836Z,68.10
2018-03-29T10:51:36.743Z,68.60
2018-03-29T10:54:04.229Z,67.70
2018-03-29T10:56:31.688Z,67.20
2018-03-29T10:58:59.148Z,67.30
2018-03-29T11:01:26.607Z,67.30
2018-03-29T11:03:54.077Z,67.30
2018-03-29T11:06:22.887Z,68.30
2018-03-29T11:08:50.899Z,68.20
2018-03-29T11:11:18.814Z,67.70
2018-03-29T11:13:47.048Z,67.50
2018-03-29T11:16:14.498Z,67.50
2018-03-29T11:18:41.972Z,66.70
2018-03-29T11:21:09.478Z,66.90
2018-03-29T11:23:37.102Z,68.30
2018-03-29T11:26:04.550Z,67.90
2018-03-29T11:28:32.057Z,66.20
2018-03-29T11:30:59.496Z,66.10
2018-03-29T11:33:27.106Z,65.20
2018-03-29T11:35:55.068Z,62.60
2018-03-29T11:38:22.580Z,63.50
2018-03-29T11:40:50.014Z,64.30
2018-03-29T11:43:18.826Z,62.00
2018-03-29T11:45:46.874Z,62.00
2018-03-29T11:48:15.141Z,59.50
2018-03-29T11:50:42.643Z,59.50
2018-03-29T11:53:10.203Z,59.50
2018-03-29T11:55:37.762Z,59.20
2018-03-29T11:58:05.206Z,59.70
2018-03-29T12:00:32.916Z,61.20
2018-03-29T12:03:00.356Z,60.70
2018-03-29T12:05:28.141Z,61.80
2018-03-29T12:07:57.094Z,61.90
2018-03-29T12:10:25.014Z,61.80
2018-03-29T12:12:52.466Z,62.00
2018-03-29T12:15:19.943Z,60.40
2018-03-29T12:17:48.157Z,57.80
2018-03-29T12:20:16.402Z,59.70
2018-03-29T12:22:44.615Z,59.60
2018-03-29T12:25:12.321Z,59.60
2018-03-29T12:27:40.547Z,54.50
2018-03-29T12:30:08.333Z,53.80
2018-03-29T12:32:36.413Z,52.90
2018-03-29T12:35:04.383Z,52.70
2018-03-29T12:37:31.841Z,51.50
2018-03-29T12:39:59.623Z,52.10
2018-03-29T12:42:27.864Z,52.70
2018-03-29T12:44:55.563Z,52.70
2018-03-29T12:47:23.076Z,52.70
2018-03-29T12:49:50.537Z,52.90
2018-03-29T12:52:18.094Z,51.80
2018-03-29T12:54:57.326Z,52.40
2018-03-29T12:57:36.980Z,50.60
2018-03-29T13:00:04.443Z,49.10
2018-03-29T13:02:32.857Z,48.10
2018-03-29T13:05:02.181Z,47.30
2018-03-29T13:07:30.060Z,47.30
2018-03-29T13:09:57.810Z,49.00
2018-03-29T13:12:25.665Z,48.70
2018-03-29T13:14:53.107Z,48.30
2018-03-29T13:17:20.584Z,49.70
2018-03-29T13:19:48.048Z,50.50
2018-03-29T13:22:15.620Z,50.00
2018-03-29T13:24:43.084Z,50.40
2018-03-29T13:27:10.591Z,51.10
2018-03-29T13:29:38.309Z,51.40
2018-03-29T13:32:05.764Z,53.30
2018-03-29T13:34:33.214Z,56.70
2018-03-29T13:37:00.885Z,57.70
2018-03-29T13:39:28.333Z,59.00
2018-03-29T13:41:56.015Z,61.80
2018-03-29T13:44:24.011Z,62.60
2018-03-29T13:46:52.249Z,66.40
2018-03-29T13:49:19.687Z,66.40
2018-03-29T13:51:47.166Z,66.60
2018-03-29T13:54:14.664Z,67.10
2018-03-29T13:56:42.108Z,64.50
2018-03-29T13:59:09.617Z,64.70
2018-03-29T14:01:37.141Z,63.40
2018-03-29T14:04:04.618Z,62.10
2018-03-29T14:06:32.469Z,60.60
2018-03-29T14:08:59.979Z,61.40
2018-03-29T14:11:27.801Z,58.20
2018-03-29T14:13:55.282Z,55.10
2018-03-29T14:16:22.724Z,55.20
2018-03-29T14:18:50.648Z,56.50
2018-03-29T14:21:19.097Z,55.40
2018-03-29T14:23:46.725Z,55.40
2018-03-29T14:26:14.262Z,55.50
2018-03-29T14:28:42.076Z,54.50
2018-03-29T14:31:09.535Z,55.60
2018-03-29T14:33:36.978Z,53.30
2018-03-29T14:36:04.930Z,54.20
2018-03-29T14:38:32.387Z,54.10
2018-03-29T14:40:59.863Z,55.10
2018-03-29T14:43:27.716Z,54.10
2018-03-29T14:45:55.270Z,54.10
2018-03-29T14:48:22.713Z,53.40
2018-03-29T14:50:50.528Z,54.30
2018-03-29T14:53:18.046Z,53.90
2018-03-29T14:55:45.613Z,54.60
2018-03-29T14:58:13.164Z,54.60
2018-03-29T15:00:40.777Z,55.90
2018-03-29T15:03:08.225Z,57.20
2018-03-29T15:05:35.985Z,55.90
2018-03-29T15:08:03.875Z,56.60
2018-03-29T15:10:31.722Z,57.30
2018-03-29T15:12:59.169Z,58.00
2018-03-29T15:15:26.652Z,57.80
2018-03-29T15:17:54.864Z,58.60
2018-03-29T15:20:22.344Z,58.50
2018-03-29T15:22:49.788Z,58.70
2018-03-29T15:25:17.269Z,58.90
2018-03-29T15:27:44.905Z,59.20
2018-03-29T15:30:12.342Z,59.10
2018-03-29T15:32:39.898Z,59.30
2018-03-29T15:35:08.289Z,59.60
2018-03-29T15:37:35.746Z,59.60
2018-03-29T15:40:03.306Z,59.70
2018-03-29T15:42:30.897Z,60.20
2018-03-29T15:44:58.881Z,60.00
2018-03-29T15:47:26.344Z,59.90
2018-03-29T15:49:55.210Z,60.80
2018-03-29T15:52:22.839Z,60.80
2018-03-29T15:54:50.294Z,61.00
2018-03-29T15:57:17.868Z,59.70
2018-03-29T15:59:46.032Z,58.80
2018-03-29T16:02:13.540Z,58.80
2018-03-29T16:04:41.592Z,59.40
2018-03-29T16:07:09.529Z,59.10
2018-03-29T16:09:36.982Z,57.50
2018-03-29T16:12:04.769Z,57.30
2018-03-29T16:14:32.237Z,57.30
2018-03-29T16:16:59.676Z,57.90
2018-03-29T16:19:27.344Z,57.00
2018-03-29T16:21:54.796Z,56.80
2018-03-29T16:24:22.273Z,55.50
2018-03-29T16:26:49.720Z,55.20
2018-03-29T16:29:17.220Z,54.30
2018-03-29T16:31:44.835Z,54.30
2018-03-29T16:34:12.334Z,54.30
2018-03-29T16:36:40.984Z,54.80
2018-03-29T16:39:08.461Z,54.80
2018-03-29T16:41:36.692Z,54.90
2018-03-29T16:44:05.217Z,54.90
2018-03-29T16:46:33.438Z,55.30
2018-03-29T16:49:00.949Z,55.20
2018-03-29T16:51:28.418Z,55.30
2018-03-29T16:53:57.120Z,55.60
2018-03-29T16:56:24.555Z,55.60
2018-03-29T16:58:53.070Z,55.70
2018-03-29T17:01:20.505Z,56.10
2018-03-29T17:03:47.950Z,56.10
2018-03-29T17:06:16.771Z,56.40
2018-03-29T17:08:44.223Z,56.40
2018-03-29T17:11:12.130Z,56.30
2018-03-29T17:13:39.579Z,56.40
2018-03-29T17:16:07.040Z,56.20
2018-03-29T17:18:34.490Z,55.90
2018-03-29T17:21:02.048Z,56.00
2018-03-29T17:23:29.532Z,56.80
2018-03-29T17:25:57.884Z,56.50
2018-03-29T17:28:25.472Z,56.70
2018-03-29T17:30:53.198Z,56.30
2018-03-29T17:33:20.647Z,56.10
2018-03-29T17:35:48.709Z,56.50
2018-03-29T17:38:16.164Z,56.90
2018-03-29T17:40:43.885Z,57.30
2018-03-29T17:43:12.117Z,58.00
2018-03-29T17:45:40.224Z,58.00
2018-03-29T17:48:08.175Z,58.20
2018-03-29T17:50:37.015Z,58.30
2018-03-29T17:53:04.470Z,58.50
2018-03-29T17:55:32.558Z,58.70
2018-03-29T17:58:00.021Z,58.80
2018-03-29T18:00:27.615Z,59.30
2018-03-29T18:02:55.080Z,59.40
2018-03-29T18:05:23.303Z,60.70
2018-03-29T18:07:50.791Z,61.20
2018-03-29T18:10:18.264Z,61.40
2018-03-29T18:12:46.127Z,61.70
2018-03-29T18:15:13.571Z,62.10
2018-03-29T18:17:41.108Z,62.40
2018-03-29T18:20:08.572Z,62.50
2018-03-29T18:22:36.029Z,62.90
2018-03-29T18:25:03.494Z,63.00
2018-03-29T18:27:31.157Z,63.30
2018-03-29T18:29:58.690Z,63.40
2018-03-29T18:32:26.148Z,63.50
2018-03-29T18:34:54.882Z,63.90
2018-03-29T18:37:22.647Z,64.20
2018-03-29T18:39:50.115Z,64.30
2018-03-29T18:42:18.341Z,65.40
2018-03-29T18:44:46.239Z,64.80
2018-03-29T18:47:13.734Z,64.80
2018-03-29T18:49:41.169Z,64.90
2018-03-29T18:52:09.539Z,65.40
2018-03-29T18:54:36.986Z,65.40
2018-03-29T18:57:04.432Z,65.30
2018-03-29T18:59:31.920Z,65.20
2018-03-29T19:02:00.144Z,65.40
2018-03-29T19:04:27.666Z,65.30
2018-03-29T19:06:55.685Z,65.50
2018-03-29T19:09:23.166Z,65.50
2018-03-29T19:11:50.976Z,65.60
2018-03-29T19:14:18.476Z,65.80
2018-03-29T19:16:45.991Z,65.70
2018-03-29T19:19:13.493Z,66.00
2018-03-29T19:21:40.952Z,66.00
2018-03-29T19:24:08.473Z,66.20
2018-03-29T19:26:35.925Z,66.30
2018-03-29T19:29:03.422Z,66.40
2018-03-29T19:31:30.882Z,66.50
2018-03-29T19:33:58.673Z,66.60
2018-03-29T19:36:27.314Z,66.70
2018-03-29T19:38:54.789Z,66.70
2018-03-29T19:41:22.260Z,66.70
2018-03-29T19:43:51.118Z,66.90
2018-03-29T19:46:18.582Z,66.90
2018-03-29T19:48:46.042Z,66.90
2018-03-29T19:51:13.586Z,67.00
2018-03-29T19:53:41.030Z,67.20
2018-03-29T19:56:08.505Z,67.30
2018-03-29T19:58:35.975Z,67.40
2018-03-29T20:01:04.237Z,67.30
2018-03-29T20:03:31.717Z,68.10
2018-03-29T20:06:00.269Z,67.70
2018-03-29T20:08:27.726Z,67.70
2018-03-29T20:10:55.511Z,67.90
2018-03-29T20:13:23.484Z,67.70
2018-03-29T20:15:51.737Z,68.20
2018-03-29T20:18:19.260Z,67.50
2018-03-29T20:20:46.724Z,67.50
2018-03-29T20:23:14.205Z,67.40
2018-03-29T20:25:42.198Z,67.40
2018-03-29T20:28:09.677Z,67.50
2018-03-29T20:30:37.944Z,67.80
2018-03-29T20:33:06.189Z,67.80
2018-03-29T20:35:33.954Z,67.70
2018-03-29T20:38:01.464Z,67.80
2018-03-29T20:40:28.932Z,67.80
2018-03-29T20:42:56.690Z,67.90
2018-03-29T20:45:24.549Z,68.00
2018-03-29T20:47:52.265Z,68.00
2018-03-29T20:50:19.725Z,68.00
2018-03-29T20:52:47.340Z,68.10
2018-03-29T20:55:15.003Z,67.90
2018-03-29T20:57:42.540Z,67.90
2018-03-29T21:00:09.993Z,67.80
2018-03-29T21:02:38.257Z,68.10
2018-03-29T21:05:06.839Z,68.20
2018-03-29T21:07:35.254Z,68.10
2018-03-29T21:10:02.741Z,68.00
2018-03-29T21:12:30.619Z,68.10
2018-03-29T21:14:58.790Z,68.00
2018-03-29T21:17:26.994Z,67.90
2018-03-29T21:19:55.225Z,67.90
2018-03-29T21:22:22.749Z,67.80
2018-03-29T21:24:50.267Z,67.60
2018-03-29T21:27:17.825Z,67.80
2018-03-29T21:29:45.560Z,67.60
2018-03-29T21:32:13.106Z,67.70
2018-03-29T21:34:41.213Z,67.70
2018-03-29T21:37:09.106Z,67.70
2018-03-29T21:39:37.336Z,67.50
2018-03-29T21:42:04.810Z,67.50
2018-03-29T21:44:32.729Z,67.60
2018-03-29T21:47:00.153Z,67.70
2018-03-29T21:49:28.607Z,67.70
2018-03-29T21:51:56.068Z,68.30
2018-03-29T21:54:23.567Z,67.50
2018-03-29T21:56:51.036Z,67.50
2018-03-29T21:59:18.490Z,67.20
2018-03-29T22:01:46.296Z,67.40
2018-03-29T22:04:14.183Z,67.20
2018-03-29T22:06:42.676Z,67.80
2018-03-29T22:09:10.876Z,67.80
2018-03-29T22:11:38.511Z,67.80
2018-03-29T22:14:07.160Z,67.60
2018-03-29T22:16:34.715Z,67.60
2018-03-29T22:19:02.158Z,67.60
2018-03-29T22:21:29.650Z,67.70
2018-03-29T22:23:57.242Z,67.70
2018-03-29T22:26:24.905Z,67.60
2018-03-29T22:28:52.296Z,67.70
2018-03-29T22:31:19.968Z,67.70
2018-03-29T22:33:47.465Z,67.70
2018-03-29T22:36:15.296Z,67.90
2018-03-29T22:38:42.981Z,68.00
2018-03-29T22:41:10.444Z,68.10
2018-03-29T22:43:38.276Z,68.20
2018-03-29T22:46:05.750Z,68.30
2018-03-29T22:48:33.200Z,68.20
2018-03-29T22:51:00.649Z,68.10
2018-03-29T22:53:28.148Z,67.90
2018-03-29T22:55:55.673Z,67.90
2018-03-29T22:58:23.143Z,68.00
2018-03-29T23:00:51.590Z,68.40
2018-03-29T23:03:19.057Z,68.30
2018-03-29T23:05:46.882Z,68.40
2018-03-29T23:08:14.364Z,68.50
2018-03-29T23:10:42.411Z,68.50
2018-03-29T23:13:09.878Z,68.60
2018-03-29T23:15:37.656Z,68.70
2018-03-29T23:18:05.103Z,68.80
2018-03-29T23:20:32.577Z,68.80
2018-03-29T23:23:00.326Z,68.70
2018-03-29T23:25:27.782Z,69.60
2018-03-29T23:27:55.270Z,69.00
2018-03-29T23:30:22.736Z,69.00
2018-03-29T23:32:50.189Z,69.10
2018-03-29T23:35:18.387Z,69.20
2018-03-29T23:37:45.861Z,69.30
2018-03-29T23:40:13.344Z,69.40
2018-03-29T23:42:40.784Z,69.40
2018-03-29T23:45:08.815Z,69.70
2018-03-29T23:47:37.021Z,69.70
2018-03-29T23:50:04.585Z,69.70
2018-03-29T23:52:32.284Z,69.70
2018-03-29T23:54:59.942Z,69.80
2018-03-29T23:57:27.460Z,70.50
2018-03-29T23:59:54.917Z,70.00
